createdAt,value
2018-10-05T00:02:23.037Z,13.70
2018-10-05T00:04:53.477Z,13.70
2018-10-05T00:07:23.894Z,13.80
2018-10-05T00:09:54.307Z,13.70
2018-10-05T00:12:25.464Z,13.70
2018-10-05T00:14:55.848Z,13.70
2018-10-05T00:17:26.250Z,13.70
2018-10-05T00:20:02.717Z,13.80
2018-10-05T00:22:40.451Z,13.80
2018-10-05T00:25:10.799Z,13.80
2018-10-05T00:27:44.606Z,13.40
2018-10-05T00:30:15.774Z,13.50
2018-10-05T00:32:46.199Z,13.50
2018-10-05T00:35:16.592Z,13.50
2018-10-05T00:37:46.996Z,13.30
2018-10-05T00:40:17.402Z,13.30
2018-10-05T00:42:49.840Z,13.30
2018-10-05T00:45:21.019Z,13.30
2018-10-05T00:47:54.497Z,13.30
2018-10-05T00:50:24.839Z,13.40
2018-10-05T00:52:55.281Z,13.30
2018-10-05T00:55:25.667Z,13.30
2018-10-05T00:57:56.086Z,13.30
2018-10-05T01:00:27.264Z,13.30
2018-10-05T01:02:57.692Z,13.30
2018-10-05T01:05:30.131Z,13.40
2018-10-05T01:08:01.312Z,13.40
2018-10-05T01:10:31.744Z,13.40
2018-10-05T01:13:02.135Z,13.40
2018-10-05T01:15:33.318Z,13.20
2018-10-05T01:18:03.740Z,13.20
2018-10-05T01:20:36.199Z,13.30
2018-10-05T01:23:06.623Z,13.20
2018-10-05T01:25:37.019Z,13.10
2018-10-05T01:28:08.132Z,13.20
2018-10-05T01:30:38.541Z,13.30
2018-10-05T01:33:12.010Z,13.30
2018-10-05T01:35:42.413Z,13.40
2018-10-05T01:38:12.829Z,13.20
2018-10-05T01:40:43.222Z,13.30
2018-10-05T01:43:19.772Z,13.30
2018-10-05T01:45:50.199Z,13.20
2018-10-05T01:48:20.607Z,13.20
2018-10-05T01:50:51.795Z,13.10
2018-10-05T01:53:40.837Z,13.10
2018-10-05T01:58:58.491Z,12.90
2018-10-05T02:01:28.876Z,12.90
2018-10-05T02:03:59.279Z,13.00
2018-10-05T02:06:29.689Z,13.10
2018-10-05T02:09:00.078Z,13.00
2018-10-05T02:11:31.250Z,12.90
2018-10-05T02:14:01.662Z,12.90
2018-10-05T02:16:32.070Z,12.90
2018-10-05T02:19:02.391Z,12.90
2018-10-05T02:21:32.819Z,12.80
2018-10-05T02:24:03.989Z,12.70
2018-10-05T02:26:34.313Z,12.70
2018-10-05T02:29:04.909Z,12.80
2018-10-05T02:31:35.294Z,12.70
2018-10-05T02:34:11.858Z,12.70
2018-10-05T02:36:42.283Z,12.70
2018-10-05T02:39:12.668Z,12.60
2018-10-05T02:41:43.124Z,12.60
2018-10-05T02:44:13.489Z,12.80
2018-10-05T02:46:43.880Z,12.80
2018-10-05T02:49:14.292Z,12.70
2018-10-05T02:51:44.705Z,12.60
2018-10-05T02:54:15.874Z,12.70
2018-10-05T02:56:46.299Z,12.70
2018-10-05T02:59:16.696Z,12.80
2018-10-05T03:02:16.408Z,12.70
2018-10-05T03:04:46.815Z,12.60
2018-10-05T03:07:17.399Z,12.50
2018-10-05T03:09:47.801Z,12.50
2018-10-05T03:12:18.986Z,12.40
2018-10-05T03:14:49.299Z,12.40
2018-10-05T03:17:19.702Z,12.40
2018-10-05T03:19:50.952Z,12.20
2018-10-05T03:22:23.320Z,12.20
2018-10-05T03:24:53.655Z,12.20
2018-10-05T03:27:25.100Z,12.30
2018-10-05T03:29:55.509Z,12.30
2018-10-05T03:32:25.925Z,12.30
2018-10-05T03:34:56.340Z,12.20
2018-10-05T03:37:26.729Z,12.30
2018-10-05T03:39:57.131Z,12.30
2018-10-05T03:42:28.286Z,12.30
2018-10-05T03:44:58.692Z,12.30
2018-10-05T03:47:29.096Z,12.20
2018-10-05T03:49:59.504Z,12.20
2018-10-05T03:52:32.967Z,12.20
2018-10-05T03:55:04.341Z,12.10
2018-10-05T03:57:34.751Z,12.10
2018-10-05T04:00:05.170Z,12.00
2018-10-05T04:02:36.633Z,12.10
2018-10-05T04:05:07.035Z,12.00
2018-10-05T04:07:38.199Z,11.80
2018-10-05T04:10:08.837Z,11.80
2018-10-05T04:12:39.231Z,11.90
2018-10-05T04:15:09.678Z,11.90
2018-10-05T04:17:40.858Z,11.90
2018-10-05T04:20:15.360Z,11.80
2018-10-05T04:22:45.791Z,11.80
2018-10-05T04:25:16.231Z,11.90
2018-10-05T04:27:47.656Z,11.80
2018-10-05T04:30:18.824Z,11.80
2018-10-05T04:32:49.248Z,11.80
2018-10-05T04:35:19.652Z,11.90
2018-10-05T04:37:50.043Z,11.90
2018-10-05T04:40:21.201Z,11.90
2018-10-05T04:42:51.609Z,11.80
2018-10-05T04:45:22.005Z,12.00
2018-10-05T04:47:52.432Z,11.90
2018-10-05T04:50:22.832Z,11.80
2018-10-05T04:52:53.992Z,11.60
2018-10-05T04:55:25.335Z,11.60
2018-10-05T04:57:55.733Z,11.50
2018-10-05T05:00:26.351Z,11.50
2018-10-05T05:02:56.738Z,11.60
2018-10-05T05:05:27.164Z,11.70
2018-10-05T05:07:59.622Z,11.60
2018-10-05T05:10:30.048Z,11.70
2018-10-05T05:13:00.450Z,11.70
2018-10-05T05:15:30.763Z,11.60
2018-10-05T05:18:01.174Z,11.60
2018-10-05T05:20:31.568Z,11.70
2018-10-05T05:23:02.994Z,11.70
2018-10-05T05:25:36.204Z,11.50
2018-10-05T05:28:06.627Z,11.50
2018-10-05T05:30:37.033Z,11.50
2018-10-05T05:33:08.215Z,11.40
2018-10-05T05:35:38.645Z,11.40
2018-10-05T05:38:09.057Z,11.20
2018-10-05T05:40:39.480Z,11.40
2018-10-05T05:43:10.898Z,11.40
2018-10-05T05:45:41.281Z,11.50
2018-10-05T05:48:11.668Z,11.60
2018-10-05T05:50:43.002Z,12.00
2018-10-05T05:53:13.377Z,12.00
2018-10-05T05:55:43.833Z,11.60
2018-10-05T05:58:14.919Z,11.00
2018-10-05T06:00:45.999Z,10.90
2018-10-05T06:03:16.414Z,10.90
2018-10-05T06:05:46.996Z,11.30
2018-10-05T06:11:05.847Z,11.30
2018-10-05T06:13:54.482Z,11.20
2018-10-05T06:16:25.972Z,11.20
2018-10-05T06:18:56.498Z,11.30
2018-10-05T06:21:26.921Z,11.30
2018-10-05T06:23:57.272Z,11.30
2018-10-05T06:26:28.402Z,13.00
2018-10-05T06:28:58.795Z,13.00
2018-10-05T06:31:29.370Z,13.30
2018-10-05T06:33:59.686Z,13.30
2018-10-05T06:36:30.085Z,13.30
2018-10-05T06:39:19.844Z,13.40
2018-10-05T06:41:50.261Z,13.00
2018-10-05T06:44:20.605Z,12.40
2018-10-05T06:46:51.008Z,12.20
2018-10-05T06:49:21.401Z,12.00
2018-10-05T06:51:51.715Z,11.80
2018-10-05T06:54:22.107Z,11.80
2018-10-05T06:56:53.507Z,11.70
2018-10-05T06:59:23.885Z,11.70
2018-10-05T07:01:56.446Z,12.50
2018-10-05T07:04:27.394Z,12.30
2018-10-05T07:06:57.798Z,11.90
2018-10-05T07:09:28.202Z,12.00
2018-10-05T07:11:58.586Z,11.90
2018-10-05T07:14:33.085Z,11.80
2018-10-05T07:17:03.562Z,11.70
2018-10-05T07:19:35.880Z,11.80
2018-10-05T07:22:06.281Z,12.30
2018-10-05T07:24:36.690Z,12.20
2018-10-05T07:27:07.074Z,12.10
2018-10-05T07:29:37.463Z,12.10
2018-10-05T07:32:08.500Z,12.20
2018-10-05T07:34:38.886Z,12.10
2018-10-05T07:37:16.643Z,12.20
2018-10-05T07:39:47.013Z,12.20
2018-10-05T07:42:17.331Z,12.20
2018-10-05T07:44:47.747Z,12.20
2018-10-05T07:47:18.159Z,12.20
2018-10-05T07:49:48.728Z,12.10
2018-10-05T07:52:19.366Z,12.20
2018-10-05T07:54:52.740Z,12.20
2018-10-05T07:57:25.293Z,12.30
2018-10-05T07:59:55.568Z,12.30
2018-10-05T08:02:25.894Z,12.50
2018-10-05T08:04:56.285Z,12.60
2018-10-05T08:07:26.678Z,12.60
2018-10-05T08:10:02.793Z,12.40
2018-10-05T08:12:33.193Z,12.40
2018-10-05T08:15:03.513Z,12.60
2018-10-05T08:17:33.905Z,12.70
2018-10-05T08:20:04.223Z,12.70
2018-10-05T08:22:35.376Z,12.80
2018-10-05T08:25:06.030Z,12.70
2018-10-05T08:27:36.424Z,12.80
2018-10-05T08:30:06.746Z,13.00
2018-10-05T08:32:37.147Z,13.00
2018-10-05T08:35:09.571Z,13.10
2018-10-05T08:37:40.740Z,13.00
2018-10-05T08:40:11.246Z,13.00
2018-10-05T08:42:42.565Z,13.20
2018-10-05T08:45:12.944Z,13.50
2018-10-05T08:47:43.360Z,13.30
2018-10-05T08:50:14.504Z,13.50
2018-10-05T08:52:45.672Z,13.60
2018-10-05T08:55:16.103Z,13.60
2018-10-05T08:57:46.572Z,13.70
2018-10-05T09:00:17.005Z,14.00
2018-10-05T09:02:48.393Z,13.90
2018-10-05T09:05:18.784Z,13.80
2018-10-05T09:07:49.162Z,13.90
2018-10-05T09:10:19.560Z,14.00
2018-10-05T09:12:49.944Z,14.10
2018-10-05T09:15:22.353Z,14.20
2018-10-05T09:17:53.614Z,14.20
2018-10-05T09:20:23.909Z,14.20
2018-10-05T09:22:54.297Z,14.20
2018-10-05T09:25:24.695Z,14.30
2018-10-05T09:27:55.083Z,14.50
2018-10-05T09:30:25.665Z,14.60
2018-10-05T09:33:00.090Z,14.50
2018-10-05T09:35:31.499Z,14.70
2018-10-05T09:38:02.013Z,14.80
2018-10-05T09:40:32.212Z,14.90
2018-10-05T09:43:04.642Z,14.90
2018-10-05T09:45:35.800Z,15.10
2018-10-05T09:48:06.864Z,15.10
2018-10-05T09:50:37.241Z,15.10
2018-10-05T09:53:07.623Z,15.20
2018-10-05T09:55:39.046Z,15.20
2018-10-05T09:58:09.430Z,15.30
2018-10-05T10:00:39.813Z,15.50
2018-10-05T10:03:10.186Z,15.60
2018-10-05T10:05:40.855Z,15.70
2018-10-05T10:08:12.125Z,15.80
2018-10-05T10:10:43.155Z,15.90
2018-10-05T10:13:13.776Z,15.90
2018-10-05T10:15:44.943Z,16.00
2018-10-05T10:18:15.335Z,16.00
2018-10-05T10:20:47.517Z,16.20
2018-10-05T10:26:05.162Z,16.30
2018-10-05T10:28:35.647Z,16.50
2018-10-05T10:31:06.956Z,16.40
2018-10-05T10:33:37.404Z,16.50
2018-10-05T10:36:07.782Z,16.50
2018-10-05T10:38:38.937Z,16.80
2018-10-05T10:41:10.100Z,16.80
2018-10-05T10:43:40.508Z,16.80
2018-10-05T10:46:11.655Z,16.90
2018-10-05T10:48:42.822Z,17.00
2018-10-05T10:51:13.205Z,17.00
2018-10-05T10:53:43.588Z,17.10
2018-10-05T10:56:19.140Z,17.10
2018-10-05T10:58:53.505Z,17.30
2018-10-05T11:01:23.918Z,17.30
2018-10-05T11:03:54.366Z,17.40
2018-10-05T11:06:24.866Z,17.40
2018-10-05T11:08:55.197Z,17.40
2018-10-05T11:11:25.578Z,17.30
2018-10-05T11:13:55.959Z,17.30
2018-10-05T11:16:26.626Z,17.40
2018-10-05T11:18:57.023Z,17.30
2018-10-05T11:21:27.412Z,17.40
2018-10-05T11:23:57.824Z,17.20
2018-10-05T11:26:28.219Z,17.30
2018-10-05T11:28:59.354Z,17.50
2018-10-05T11:31:30.524Z,17.60
2018-10-05T11:34:00.931Z,17.50
2018-10-05T11:36:32.073Z,17.60
2018-10-05T11:39:03.244Z,17.60
2018-10-05T11:41:33.671Z,17.60
2018-10-05T11:44:04.006Z,17.80
2018-10-05T11:46:34.400Z,17.90
2018-10-05T11:49:05.539Z,17.80
2018-10-05T11:51:36.697Z,17.80
2018-10-05T11:54:07.109Z,17.70
2018-10-05T11:56:37.499Z,17.80
2018-10-05T11:59:07.886Z,17.70
2018-10-05T12:01:38.996Z,17.80
2018-10-05T12:04:09.376Z,17.90
2018-10-05T12:06:40.773Z,18.20
2018-10-05T12:09:11.163Z,18.10
2018-10-05T12:11:41.536Z,18.20
2018-10-05T12:14:11.919Z,18.30
2018-10-05T12:16:42.317Z,18.20
2018-10-05T12:19:12.703Z,18.30
2018-10-05T12:21:43.088Z,18.20
2018-10-05T12:24:13.486Z,18.30
2018-10-05T12:26:43.976Z,18.40
2018-10-05T12:29:14.192Z,18.70
2018-10-05T12:31:44.595Z,18.60
2018-10-05T12:34:14.967Z,18.40
2018-10-05T12:36:45.356Z,18.70
2018-10-05T12:39:17.790Z,18.80
2018-10-05T12:41:48.177Z,18.70
2018-10-05T12:44:18.571Z,18.80
2018-10-05T12:46:49.997Z,18.80
2018-10-05T12:49:20.369Z,18.90
2018-10-05T12:51:50.773Z,18.90
2018-10-05T12:54:22.125Z,19.10
2018-10-05T12:56:54.305Z,19.30
2018-10-05T12:59:29.786Z,19.20
2018-10-05T13:02:00.165Z,19.30
2018-10-05T13:04:35.239Z,19.30
2018-10-05T13:07:05.639Z,19.30
2018-10-05T13:09:55.402Z,19.20
2018-10-05T13:12:25.795Z,19.30
2018-10-05T13:14:56.189Z,19.30
2018-10-05T13:17:28.626Z,19.30
2018-10-05T13:19:59.027Z,19.20
2018-10-05T13:22:29.414Z,19.50
2018-10-05T13:24:59.803Z,19.70
2018-10-05T13:27:30.190Z,19.70
2018-10-05T13:30:00.848Z,19.60
2018-10-05T13:32:31.243Z,19.70
2018-10-05T13:35:01.653Z,19.80
2018-10-05T13:37:32.039Z,19.70
2018-10-05T13:40:02.426Z,19.60
2018-10-05T13:42:32.823Z,19.80
2018-10-05T13:47:50.645Z,20.00
2018-10-05T13:50:23.912Z,20.10
2018-10-05T13:52:55.079Z,20.20
2018-10-05T13:55:25.471Z,20.20
2018-10-05T13:57:58.342Z,20.00
2018-10-05T14:00:28.922Z,20.10
2018-10-05T14:02:59.302Z,20.00
2018-10-05T14:05:29.690Z,20.00
2018-10-05T14:08:00.018Z,20.20
2018-10-05T14:10:30.450Z,20.10
2018-10-05T14:13:01.567Z,20.30
2018-10-05T14:15:31.890Z,20.30
2018-10-05T14:18:02.301Z,20.20
2018-10-05T14:20:33.525Z,20.20
2018-10-05T14:23:04.614Z,20.30
2018-10-05T14:25:35.851Z,20.20
2018-10-05T14:28:06.163Z,20.20
2018-10-05T14:30:39.740Z,20.30
2018-10-05T14:33:10.115Z,20.20
2018-10-05T14:35:43.014Z,20.30
2018-10-05T14:38:13.428Z,20.40
2018-10-05T14:40:44.056Z,20.50
2018-10-05T14:43:15.203Z,20.20
2018-10-05T14:45:45.686Z,20.20
2018-10-05T14:48:15.985Z,20.40
2018-10-05T14:50:49.240Z,20.30
2018-10-05T14:53:19.732Z,20.50
2018-10-05T14:55:50.128Z,20.50
2018-10-05T14:58:21.529Z,20.50
2018-10-05T15:00:52.939Z,20.60
2018-10-05T15:03:23.318Z,20.60
2018-10-05T15:05:58.791Z,20.50
2018-10-05T15:08:29.195Z,20.60
2018-10-05T15:11:03.192Z,20.60
2018-10-05T15:13:33.604Z,20.60
2018-10-05T15:16:06.713Z,20.60
2018-10-05T15:18:37.871Z,20.70
2018-10-05T15:21:08.270Z,20.60
2018-10-05T15:23:39.412Z,20.50
2018-10-05T15:26:09.790Z,20.60
2018-10-05T15:28:40.180Z,20.50
2018-10-05T15:31:11.334Z,20.50
2018-10-05T15:33:42.504Z,20.50
2018-10-05T15:36:12.889Z,20.50
2018-10-05T15:38:43.287Z,20.40
2018-10-05T15:41:20.427Z,20.20
2018-10-05T15:43:53.341Z,20.10
2018-10-05T15:46:27.826Z,20.20
2018-10-05T15:49:01.124Z,20.20
2018-10-05T15:51:31.690Z,20.20
2018-10-05T15:54:04.134Z,20.20
2018-10-05T15:56:37.338Z,20.10
2018-10-05T15:59:07.779Z,20.20
2018-10-05T16:01:43.785Z,20.20
2018-10-05T16:04:14.166Z,20.00
2018-10-05T16:06:44.556Z,20.00
2018-10-05T16:09:14.954Z,19.90
2018-10-05T16:11:45.331Z,19.90
2018-10-05T16:14:15.721Z,19.90
2018-10-05T16:16:46.106Z,20.00
2018-10-05T16:19:16.494Z,19.80
2018-10-05T16:21:46.868Z,19.90
2018-10-05T16:24:19.301Z,19.70
2018-10-05T16:26:49.860Z,19.70
2018-10-05T16:29:20.227Z,19.70
2018-10-05T16:31:50.627Z,19.70
2018-10-05T16:34:23.425Z,19.50
2018-10-05T16:36:53.796Z,19.50
2018-10-05T16:42:14.791Z,19.50
2018-10-05T16:44:45.195Z,19.40
2018-10-05T16:47:15.581Z,19.30
2018-10-05T16:49:48.840Z,19.30
2018-10-05T16:52:19.221Z,19.20
2018-10-05T16:55:09.739Z,19.10
2018-10-05T16:57:42.711Z,19.10
2018-10-05T17:00:19.160Z,19.10
2018-10-05T17:02:54.984Z,19.00
2018-10-05T17:05:28.066Z,19.00
2018-10-05T17:07:58.449Z,19.00
2018-10-05T17:10:28.881Z,18.90
2018-10-05T17:13:01.720Z,18.80
2018-10-05T17:15:32.099Z,18.80
2018-10-05T17:18:05.167Z,18.70
2018-10-05T17:20:37.605Z,18.70
2018-10-05T17:23:07.983Z,18.60
2018-10-05T17:25:40.419Z,18.60
2018-10-05T17:28:13.474Z,18.50
2018-10-05T17:30:46.270Z,18.50
2018-10-05T17:33:19.300Z,18.50
2018-10-05T17:35:52.602Z,18.50
2018-10-05T17:38:25.521Z,18.50
2018-10-05T17:40:58.761Z,18.50
2018-10-05T17:43:29.139Z,18.40
2018-10-05T17:45:59.519Z,18.40
2018-10-05T17:48:29.860Z,18.30
2018-10-05T17:51:05.353Z,18.30
2018-10-05T17:53:36.507Z,18.30
2018-10-05T17:56:07.715Z,18.20
2018-10-05T17:58:38.809Z,18.10
2018-10-05T18:01:10.234Z,18.10
2018-10-05T18:03:43.500Z,18.10
2018-10-05T18:06:16.458Z,18.10
2018-10-05T18:08:47.782Z,18.00
2018-10-05T18:11:18.184Z,18.00
2018-10-05T18:13:51.503Z,17.90
2018-10-05T18:16:21.888Z,17.90
2018-10-05T18:18:57.964Z,17.80
2018-10-05T18:21:30.765Z,17.80
2018-10-05T18:24:04.037Z,17.80
2018-10-05T18:26:34.409Z,17.80
2018-10-05T18:29:04.780Z,17.80
2018-10-05T18:31:35.169Z,17.70
2018-10-05T18:34:08.359Z,17.80
2018-10-05T18:36:39.828Z,17.80
2018-10-05T18:39:10.405Z,17.70
2018-10-05T18:41:40.787Z,17.70
2018-10-05T18:44:11.238Z,17.60
2018-10-05T18:46:44.270Z,17.70
2018-10-05T18:52:05.482Z,17.60
2018-10-05T18:54:35.856Z,17.60
2018-10-05T18:57:11.564Z,17.50
2018-10-05T18:59:44.726Z,17.50
2018-10-05T19:02:15.122Z,17.50
2018-10-05T19:04:45.742Z,17.50
2018-10-05T19:07:16.057Z,17.50
2018-10-05T19:09:57.597Z,17.50
2018-10-05T19:12:28.171Z,17.40
2018-10-05T19:14:58.569Z,17.40
2018-10-05T19:17:31.424Z,17.40
2018-10-05T19:20:22.214Z,17.40
2018-10-05T19:22:53.630Z,17.40
2018-10-05T19:25:27.269Z,17.30
2018-10-05T19:27:59.716Z,17.30
2018-10-05T19:30:36.017Z,17.30
2018-10-05T19:33:13.329Z,17.30
2018-10-05T19:35:43.716Z,17.30
2018-10-05T19:38:15.128Z,17.30
2018-10-05T19:40:45.527Z,17.30
2018-10-05T19:43:21.635Z,17.10
2018-10-05T19:45:52.034Z,17.20
2018-10-05T19:48:25.157Z,17.20
2018-10-05T19:50:55.548Z,17.10
2018-10-05T19:53:26.069Z,17.10
2018-10-05T19:55:56.490Z,17.10
2018-10-05T19:58:26.876Z,17.00
2018-10-05T20:00:57.272Z,16.70
2018-10-05T20:03:28.411Z,17.00
2018-10-05T20:05:58.791Z,16.90
2018-10-05T20:08:31.853Z,17.00
2018-10-05T20:11:05.829Z,16.90
2018-10-05T20:13:42.018Z,17.00
2018-10-05T20:16:13.164Z,16.70
2018-10-05T20:18:46.530Z,16.70
2018-10-05T20:21:19.767Z,16.80
2018-10-05T20:23:50.154Z,16.80
2018-10-05T20:26:20.554Z,16.80
2018-10-05T20:28:57.952Z,16.80
2018-10-05T20:31:30.387Z,16.90
2018-10-05T20:34:03.251Z,16.90
2018-10-05T20:36:34.722Z,16.90
2018-10-05T20:39:05.762Z,16.90
2018-10-05T20:41:38.562Z,16.90
2018-10-05T20:44:08.960Z,16.90
2018-10-05T20:46:43.064Z,16.70
2018-10-05T20:49:14.205Z,16.60
2018-10-05T20:51:44.628Z,16.60
2018-10-05T20:54:17.755Z,16.40
2018-10-05T20:56:48.147Z,16.30
2018-10-05T20:59:19.301Z,16.30
2018-10-05T21:01:49.691Z,16.30
2018-10-05T21:04:20.329Z,16.40
2018-10-05T21:06:50.660Z,16.30
2018-10-05T21:09:21.752Z,16.10
2018-10-05T21:11:52.151Z,16.10
2018-10-05T21:14:23.290Z,16.00
2018-10-05T21:16:53.680Z,16.00
2018-10-05T21:19:44.463Z,16.00
2018-10-05T21:22:14.865Z,16.00
2018-10-05T21:24:51.315Z,16.00
2018-10-05T21:27:22.476Z,15.70
2018-10-05T21:29:53.619Z,15.70
2018-10-05T21:32:24.770Z,15.70
2018-10-05T21:34:55.093Z,15.70
2018-10-05T21:37:25.487Z,15.80
2018-10-05T21:39:55.865Z,15.70
2018-10-05T21:42:26.289Z,15.70
2018-10-05T21:44:56.673Z,15.70
2018-10-05T21:47:27.688Z,15.50
2018-10-05T21:49:58.080Z,15.40
2018-10-05T21:52:28.493Z,15.60
2018-10-05T21:54:59.130Z,15.60
2018-10-05T21:57:29.522Z,15.70
2018-10-05T21:59:59.907Z,15.60
2018-10-05T22:02:30.302Z,15.50
2018-10-05T22:05:00.701Z,15.40
2018-10-05T22:07:31.076Z,15.40
2018-10-05T22:10:01.453Z,15.50
2018-10-05T22:12:32.872Z,15.80
2018-10-05T22:15:03.253Z,15.90
2018-10-05T22:17:33.640Z,16.00
2018-10-05T22:20:04.261Z,15.90
2018-10-05T22:22:34.598Z,15.80
2018-10-05T22:25:04.986Z,15.50
2018-10-05T22:27:35.381Z,15.30
2018-10-05T22:30:05.770Z,15.30
2018-10-05T22:32:36.161Z,15.30
2018-10-05T22:35:06.579Z,15.30
2018-10-05T22:37:36.937Z,15.30
2018-10-05T22:40:07.246Z,15.30
2018-10-05T22:42:37.637Z,15.20
2018-10-05T22:45:08.017Z,15.30
2018-10-05T22:47:38.388Z,15.20
2018-10-05T22:50:08.758Z,15.20
2018-10-05T22:52:39.120Z,15.20
2018-10-05T22:57:55.586Z,15.00
2018-10-05T23:00:25.958Z,15.10
2018-10-05T23:02:56.541Z,14.90
2018-10-05T23:05:26.944Z,14.90
2018-10-05T23:07:57.315Z,15.00
2018-10-05T23:10:28.731Z,15.00
2018-10-05T23:12:59.887Z,15.40
2018-10-05T23:15:31.040Z,15.50
2018-10-05T23:18:01.416Z,15.50
2018-10-05T23:20:31.817Z,15.40
2018-10-05T23:23:08.349Z,15.30
2018-10-05T23:25:39.498Z,15.20
2018-10-05T23:28:10.651Z,15.20
2018-10-05T23:30:41.028Z,15.20
2018-10-05T23:33:11.444Z,15.30
2018-10-05T23:35:41.824Z,15.20
2018-10-05T23:38:12.210Z,15.20
2018-10-05T23:40:42.612Z,15.00
2018-10-05T23:43:19.129Z,15.00
2018-10-05T23:45:50.219Z,15.20
2018-10-05T23:48:20.608Z,15.20
2018-10-05T23:50:51.758Z,15.10
2018-10-05T23:53:23.215Z,15.10
2018-10-05T23:55:53.606Z,15.10
2018-10-05T23:58:23.980Z,15.30
